Latest Weather Observations for Kingaroy

IDQ60801

Issued at 10:52 pm EST Friday 15 November 2019 (issued every 10 minutes, with the page automatically refreshed every 10 minutes)

About weather observations | Map of weather stations | Latest weather observations for QLD | Other Formats
Station Details ID: 040922 Name: KINGAROY AIRPORT Lat: -26.57 Lon: 151.84 Height: 433.67 m
Data from the previous 72 hours. | See also: Recent months at Kingaroy
Date/Time
EST
Temp
°C
App
Temp
°C
Dew
Point
°C
Rel
Hum
%
Delta-T
°C
Wind Press
QNH
hPa
Press
MSL
hPa
Rain since
9am
mm
Dir  Spd
km/h
Gust
km/h
Spd
kts
Gust
kts
15/10:30pm 21.2 21.9 15.7 71 3.3 ENE 6 7 3 4 1015.9 1013.9 0.0
15/10:00pm 22.4 23.1 16.2 68 3.8 NE 7 11 4 6 1015.8 1013.8 0.0
15/09:30pm 23.0 22.7 16.5 67 4.0 N 13 20 7 11 1015.4 1013.4 0.0
15/09:00pm 23.7 22.7 16.7 65 4.4 N 17 22 9 12 1015.3 1013.3 0.0
15/08:30pm 24.0 23.3 16.5 63 4.7 N 15 22 8 12 1015.1 1013.1 0.0
15/08:00pm 24.5 23.5 16.7 61 4.9 N 17 22 9 12 1014.7 1012.7 0.0
15/07:30pm 25.1 25.2 16.5 59 5.4 N 11 19 6 10 1013.7 1011.7 0.0
15/07:00pm 26.3 25.6 16.3 54 6.3 NNE 15 20 8 11 1013.3 1011.3 0.0
15/06:30pm 27.5 26.1 15.5 48 7.5 NNE 17 26 9 14 1012.9 1010.9 0.0
15/06:00pm 30.9 28.5 5.3 20 13.7 W 7 11 4 6 1012.2 1010.1 0.0
15/05:30pm 32.0 28.5 5.5 19 14.3 WSW 13 15 7 8 1011.8 1009.7 0.0
15/05:00pm 32.6 29.0 5.2 18 14.8 WSW 13 24 7 13 1011.6 1009.5 0.0
15/04:30pm 33.4 28.9 5.9 18 15.1 WNW 19 30 10 16 1011.2 1009.2 0.0
15/04:00pm 31.9 28.4 5.4 19 14.3 NW 13 26 7 14 1011.6 1009.5 0.0
15/03:30pm 32.7 28.6 6.1 19 14.6 SW 17 24 9 13 1011.5 1009.4 0.0
15/03:00pm 33.2 29.0 5.7 18 15.0 WSW 17 32 9 17 1011.8 1009.7 0.0
15/02:30pm 34.0 29.2 2.8 14 16.3 W 17 28 9 15 1012.2 1010.1 0.0
15/02:00pm 32.7 27.2 1.7 14 15.8 WNW 20 30 11 16 1012.6 1010.6 0.0
15/01:30pm 31.9 28.2 4.6 18 14.5 WSW 13 20 7 11 1013.1 1011.1 0.0
15/01:00pm 31.5 28.5 10.8 28 12.2 NW 17 33 9 18 1013.6 1011.6 0.0
15/12:30pm 31.6 29.0 11.9 30 11.8 WNW 17 32 9 17 1014.2 1012.1 0.0
15/12:00pm 29.8 28.1 13.5 36 9.9 NW 15 26 8 14 1014.7 1012.7 0.0
15/11:30am 29.0 28.2 16.2 46 8.1 N 15 32 8 17 1015.2 1013.2 0.0
15/11:00am 27.0 27.0 16.3 52 6.7 N 11 19 6 10 1015.8 1013.8 0.0
15/10:30am 26.5 26.0 17.0 56 6.0 N 15 24 8 13 1016.5 1014.4 0.0
15/10:00am 24.8 24.3 16.8 61 5.0 NNE 15 24 8 13 1016.9 1014.9 0.0
15/09:30am 25.1 25.1 18.1 65 4.5 N 15 22 8 12 1017.1 1015.1 0.0
15/09:00am 23.6 23.8 17.6 69 3.8 N 13 20 7 11 1017.2 1015.2 0.0
15/08:30am 22.1 21.9 16.6 71 3.4 NNW 13 17 7 9 1017.2 1015.2 0.0
15/08:02am 22.6 23.2 16.9 70 3.6 NNE 9 15 5 8 1017.0 1015.0 0.0
15/08:00am 22.1 22.7 16.8 72 3.3 N 9 15 5 8 1017.0 1015.0 0.0
15/07:30am 21.7 22.5 17.3 76 2.8 N 9 17 5 9 1016.9 1014.9 0.0
15/07:00am 21.1 21.7 16.9 77 2.6 NNW 9 13 5 7 1016.7 1014.7 0.0
15/06:30am 20.5 21.9 17.3 82 2.0 NE 6 7 3 4 1016.6 1014.5 0.0
15/06:00am 19.7 21.3 16.9 84 1.7 NW 4 9 2 5 1016.4 1014.3 0.0
15/05:30am 19.3 20.5 16.9 86 1.5 NNE 6 9 3 5 1015.9 1013.9 0.0
15/05:00am 19.2 21.2 17.0 87 1.4 ENE 2 6 1 3 1015.4 1013.4 0.0
15/04:30am 19.2 21.7 17.2 88 1.2 CALM 0 0 0 0 1015.2 1013.2 0.0
15/04:00am 19.3 21.8 17.3 88 1.2 CALM 0 0 0 0 1015.0 1013.0 0.0
15/03:30am 19.1 20.8 17.2 89 1.2 NE 4 7 2 4 1014.9 1012.9 0.0
15/03:00am 19.0 21.1 17.1 89 1.2 ENE 2 7 1 4 1015.0 1013.0 0.0
15/02:30am 19.0 20.3 17.5 91 0.9 ENE 7 13 4 7 1015.0 1013.0 0.0
15/02:00am 19.0 20.5 17.5 91 0.9 E 6 9 3 5 1014.8 1012.8 0.0
15/01:30am 18.5 20.0 17.5 94 0.6 ENE 6 9 3 5 1015.1 1013.1 0.0
15/01:04am 17.0 16.9 15.0 88 1.2 E 9 11 5 6 1015.3 1013.3 0.0
15/01:00am 17.0 16.8 14.8 87 1.3 E 9 11 5 6 1015.3 1013.3 0.0
15/12:30am 17.4 18.8 14.5 83 1.7 CALM 0 0 0 0 1015.5 1013.5 0.0
15/12:00am 18.5 19.3 15.9 85 1.6 ENE 6 7 3 4 1015.7 1013.7 0.0
 
Date/Time
EST
Temp
°C
App
Temp
°C
Dew
Point
°C
Rel
Hum
%
Delta-T
°C
Wind Press
QNH
hPa
Press
MSL
hPa
Rain since
9am
mm
Dir  Spd
km/h
Gust
km/h
Spd
kts
Gust
kts
14/11:30pm 19.1 20.1 16.3 84 1.7 ENE 6 9 3 5 1015.8 1013.8 0.0
14/11:00pm 19.5 20.3 15.8 79 2.2 ENE 6 7 3 4 1015.9 1013.9 0.0
14/10:30pm 19.9 20.8 15.1 74 2.9 ENE 4 11 2 6 1015.9 1013.9 0.0
14/10:00pm 20.7 21.4 15.7 73 3.0 N 6 9 3 5 1015.7 1013.7 0.0
14/09:30pm 21.5 21.9 15.3 68 3.8 NNE 7 11 4 6 1015.5 1013.5 0.0
14/09:00pm 22.1 22.6 15.5 66 4.0 NE 7 13 4 7 1015.3 1013.3 0.0
14/08:30pm 23.0 21.9 14.3 58 5.2 NE 13 26 7 14 1014.8 1012.8 0.0
14/08:00pm 18.5 14.6 -7.0 17 9.9 ENE 6 9 3 5 1014.4 1012.3 0.0
14/07:30pm 21.0 16.7 -9.4 12 11.5 SE 7 9 4 5 1013.8 1011.8 0.0
14/07:00pm 24.6 20.2 -10.3 9 13.5 SW 7 9 4 5 1013.6 1011.6 0.0
14/06:30pm 27.1 22.0 -9.9 8 14.8 WSW 11 15 6 8 1013.3 1011.3 0.0
14/06:00pm 28.8 22.9 -10.4 7 15.8 W 15 22 8 12 1013.1 1011.1 0.0
14/05:30pm 30.6 24.8 -9.1 7 16.6 WNW 15 24 8 13 1012.7 1010.7 0.0
14/05:00pm 31.2 25.0 -8.6 7 16.9 WSW 17 20 9 11 1012.5 1010.4 0.0
14/04:30pm 31.5 25.7 -8.4 7 17.0 W 15 32 8 17 1012.4 1010.3 0.0
14/04:00pm 31.9 25.6 -10.1 6 17.5 WNW 17 26 9 14 1012.4 1010.3 0.0
14/03:30pm 31.7 25.0 -8.3 7 17.1 W 20 33 11 18 1012.5 1010.4 0.0
14/03:00pm 32.5 25.1 -7.7 7 17.5 WSW 24 35 13 19 1012.6 1010.6 0.0
14/02:30pm 31.6 24.9 -8.3 7 17.1 W 20 33 11 18 1012.9 1010.9 0.0
14/02:00pm 32.6 26.2 -11.9 5 18.1 WNW 17 26 9 14 1013.1 1011.1 0.0
14/01:30pm 32.1 25.3 -9.9 6 17.6 WSW 20 30 11 16 1013.6 1011.6 0.0
14/01:00pm 32.2 25.5 -9.9 6 17.6 W 19 33 10 18 1014.0 1011.9 0.0
14/12:30pm 30.6 25.1 -5.8 9 16.1 WSW 15 26 8 14 1014.6 1012.6 0.0
14/12:00pm 30.3 24.9 -1.2 13 15.1 WSW 17 26 9 14 1015.2 1013.2 0.0
14/11:30am 28.5 24.5 0.3 16 13.7 WSW 11 17 6 9 1015.7 1013.7 0.0
14/11:00am 27.5 23.7 1.8 19 12.7 WSW 11 17 6 9 1016.2 1014.2 0.0
14/10:30am 26.8 23.8 4.0 23 11.7 WNW 9 15 5 8 1016.8 1014.8 0.0
14/10:00am 26.1 23.8 5.7 27 10.7 ESE 7 11 4 6 1017.2 1015.2 0.0
14/09:30am 24.2 21.8 5.1 29 9.8 ESE 7 11 4 6 1017.6 1015.6 0.0
14/09:00am 23.5 20.9 6.3 33 9.0 ESE 9 13 5 7 1017.7 1015.7 0.0
14/08:30am 22.7 20.8 10.5 46 6.8 ESE 11 20 6 11 1017.9 1015.9 0.0
14/08:00am 21.2 19.7 11.8 55 5.3 ESE 11 17 6 9 1018.0 1016.0 0.0
14/07:39am 20.9 19.9 13.4 62 4.4 ESE 11 20 6 11 1017.9 1015.9 0.0
14/07:30am 20.3 19.3 13.5 65 4.0 E 11 19 6 10 1017.8 1015.8 0.0
14/07:00am 19.3 18.3 14.6 74 2.8 ESE 13 19 7 10 1017.6 1015.6 0.0
14/06:42am 18.5 18.0 14.8 79 2.2 SSE 11 17 6 9 1017.4 1015.4 0.0
14/06:30am 18.1 17.5 14.6 80 2.1 SE 11 17 6 9 1017.1 1015.1 0.0
14/06:00am 17.2 17.3 15.5 90 1.0 S 9 11 5 6 1017.0 1015.0 0.0
14/05:30am 16.1 16.6 15.0 93 0.6 SE 6 7 3 4 1016.6 1014.5 0.0
14/05:00am 15.9 15.3 14.6 92 0.8 SSE 11 13 6 7 1016.5 1014.4 0.0
14/04:59am 16.0 15.4 14.7 92 0.8 SSE 11 13 6 7 1016.5 1014.4 0.0
14/04:30am 16.8 17.3 15.5 92 0.8 SSE 7 11 4 6 1016.1 1014.1 0.0
14/04:00am 17.0 17.1 15.5 91 0.9 SE 9 15 5 8 1015.6 1013.6 0.0
14/03:30am 17.4 17.6 15.7 90 1.0 SE 9 15 5 8 1015.3 1013.3 0.0
14/03:11am 16.8 16.9 15.5 92 0.8 SSE 9 13 5 7 1015.4 1013.4 0.0
14/03:07am 16.7 16.7 15.2 91 0.9 SSE 9 13 5 7 1015.3 1013.3 0.0
14/03:00am 16.5 16.4 14.9 90 0.9 SSE 9 13 5 7 1015.3 1013.3 0.0
14/02:30am 17.0 16.6 15.2 89 1.1 S 11 13 6 7 1015.5 1013.5 0.0
14/02:00am 17.8 17.9 15.6 87 1.3 SSE 9 13 5 7 1015.5 1013.5 0.0
14/01:30am 17.9 18.2 15.9 88 1.2 SSE 9 11 5 6 1015.5 1013.5 0.0
14/01:00am 17.9 18.6 16.1 89 1.1 SE 7 11 4 6 1015.6 1013.6 0.0
14/12:30am 17.2 17.0 15.7 91 0.9 SSE 11 15 6 8 1015.7 1013.7 0.0
14/12:00am 17.3 16.8 15.8 91 0.9 SSE 13 19 7 10 1015.4 1013.4 0.0
 
Date/Time
EST
Temp
°C
App
Temp
°C
Dew
Point
°C
Rel
Hum
%
Delta-T
°C
Wind Press
QNH
hPa
Press
MSL
hPa
Rain since
9am
mm
Dir  Spd
km/h
Gust
km/h
Spd
kts
Gust
kts
13/11:54pm 17.2 17.0 15.7 91 0.9 SSE 11 15 6 8 1015.5 1013.5 0.0
13/11:30pm 17.1 16.8 15.4 90 1.0 SSE 11 15 6 8 1015.4 1013.4 0.0
13/11:00pm 17.6 17.7 15.4 87 1.3 ESE 9 15 5 8 1015.4 1013.4 0.0
13/10:30pm 18.1 17.1 15.7 86 1.4 SSE 15 20 8 11 1015.2 1013.2 0.0
13/10:00pm 18.5 17.9 15.6 83 1.7 S 13 19 7 10 1015.4 1013.4 0.0
13/09:30pm 19.1 18.2 14.8 76 2.6 SSE 13 17 7 9 1015.2 1013.2 0.0
13/09:00pm 20.8 18.5 11.7 56 5.2 SE 15 22 8 12 1014.8 1012.8 0.0
13/08:30pm 21.3 16.3 -8.2 13 11.5 SSE 11 13 6 7 1014.3 1012.2 0.0
13/08:00pm 20.8 16.5 -8.6 13 11.3 SSE 7 9 4 5 1013.8 1011.8 0.0
13/07:30pm 24.7 19.9 -10.3 9 13.6 SW 9 13 5 7 1013.4 1011.4 0.0
13/07:00pm 26.1 20.3 -9.2 9 14.2 SW 15 20 8 11 1013.1 1011.1 0.0
13/06:30pm 27.3 21.4 -9.8 8 14.9 SW 15 20 8 11 1012.7 1010.7 0.0
13/06:00pm 28.7 22.5 -8.8 8 15.5 WSW 17 24 9 13 1012.3 1010.2 0.0
13/05:30pm 30.1 24.0 -7.7 8 16.1 WSW 17 30 9 16 1011.9 1009.8 0.0
13/05:00pm 31.0 24.4 -7.1 8 16.6 WSW 20 30 11 16 1011.5 1009.4 0.0
13/04:30pm 31.6 24.3 -6.6 8 16.8 SW 24 35 13 19 1011.1 1009.1 0.0
13/04:00pm 32.5 24.9 -6.0 8 17.3 SW 26 35 14 19 1010.8 1008.8 0.0
13/03:30pm 33.2 26.0 -5.5 8 17.6 WSW 24 33 13 18 1010.7 1008.7 0.0
13/03:00pm 33.0 26.2 -5.6 8 17.5 WSW 22 32 12 17 1010.7 1008.7 0.0
13/02:30pm 33.5 25.7 -3.7 9 17.5 SW 28 39 15 21 1010.8 1008.8 0.0
13/02:00pm 33.1 25.7 -4.0 9 17.3 WSW 26 41 14 22 1011.0 1009.0 0.0
13/01:30pm 33.5 26.3 -2.3 10 17.2 WSW 26 39 14 21 1011.3 1009.3 0.0
13/01:00pm 32.7 26.5 -0.4 12 16.3 W 22 37 12 20 1011.8 1009.7 0.0
13/12:30pm 32.6 26.1 2.6 15 15.5 WSW 26 37 14 20 1012.2 1010.1 0.0
13/12:00pm 32.3 27.1 5.7 19 14.5 W 22 39 12 21 1012.5 1010.4 0.0
13/11:30am 31.0 26.3 6.1 21 13.5 WNW 20 33 11 18 1012.9 1010.9 0.0
13/11:00am 30.3 25.4 6.9 23 12.8 WNW 22 35 12 19 1013.4 1011.4 0.0
13/10:30am 29.6 22.9 7.5 25 12.2 WNW 32 44 17 24 1013.8 1011.8 0.0
13/10:00am 30.4 25.1 9.8 28 11.8 WNW 28 41 15 22 1014.1 1012.0 0.0
13/09:30am 27.9 22.2 8.2 29 10.9 WNW 28 41 15 22 1014.4 1012.3 0.0
13/09:00am 26.6 20.6 8.6 32 10.0 WNW 30 44 16 24 1014.5 1012.4 0.0
13/08:30am 26.0 20.2 9.4 35 9.3 NW 30 39 16 21 1014.7 1012.7 0.0
13/08:00am 24.4 17.6 10.7 42 7.8 NW 37 46 20 25 1014.5 1012.4 0.0
13/07:43am 23.4 18.0 10.8 45 7.1 NW 30 48 16 26 1014.5 1012.4 0.0
13/07:30am 22.7 17.1 11.4 49 6.4 NW 32 39 17 21 1014.6 1012.6 0.0
13/07:00am 21.7 17.4 12.0 54 5.6 NW 26 37 14 20 1014.7 1012.7 0.0
13/06:30am 19.3 16.8 12.3 64 4.0 NW 17 22 9 12 1014.4 1012.3 0.0
13/06:00am 17.5 16.3 12.8 74 2.7 NW 11 13 6 7 1014.2 1012.1 0.0
13/05:30am 16.5 15.7 13.0 80 2.0 WNW 9 13 5 7 1014.0 1011.9 0.0
13/05:00am 16.5 14.9 12.8 79 2.1 NNW 13 17 7 9 1013.2 1011.2 0.0
13/04:30am 16.6 14.7 12.9 79 2.1 NNW 15 19 8 10 1012.7 1010.7 0.0
13/04:00am 16.7 15.4 12.5 76 2.4 N 11 15 6 8 1012.6 1010.6 0.0
13/03:30am 17.0 15.2 12.1 73 2.7 N 13 19 7 10 1012.5 1010.4 0.0
13/03:00am 17.2 15.8 12.3 73 2.8 N 11 15 6 8 1012.3 1010.2 0.0
13/02:30am 17.8 16.1 12.3 70 3.1 NNW 13 17 7 9 1012.4 1010.3 0.0
13/02:00am 18.6 16.6 12.6 68 3.4 N 15 20 8 11 1012.5 1010.4 0.0
13/01:30am 19.3 17.3 12.8 66 3.7 N 15 20 8 11 1012.7 1010.7 0.0
13/01:00am 19.4 17.7 12.4 64 4.0 N 13 19 7 10 1012.9 1010.9 0.0
13/12:30am 20.5 18.3 12.2 59 4.7 N 15 28 8 15 1013.1 1011.1 0.0
13/12:00am 21.1 19.0 12.5 58 5.0 N 15 24 8 13 1013.4 1011.4 0.0
 
Date/Time
EST
Temp
°C
App
Temp
°C
Dew
Point
°C
Rel
Hum
%
Delta-T
°C
Wind Press
QNH
hPa
Press
MSL
hPa
Rain since
9am
mm
Dir  Spd
km/h
Gust
km/h
Spd
kts
Gust
kts
12/11:30pm 21.0 18.8 12.2 57 5.0 NNW 15 22 8 12 1013.6 1011.6 0.0
12/11:00pm 21.8 19.4 12.6 56 5.3 NNW 17 24 9 13 1013.7 1011.7 0.0

Other formats

Comma delimited format used in spreadsheet applications
http://www.bom.gov.au/fwo/IDQ60801/IDQ60801.94549.axf

JavaScript Object Notation format (JSON) in row-major order
http://www.bom.gov.au/fwo/IDQ60801/IDQ60801.94549.json

Data quality

Most of these data are generated automatically and are frequently updated. Quality checks on data are not normally performed. It is possible for incorrect values to appear. Refer to information at About Latest Weather Observations and please check the disclaimer before using these data.